createdAt,value
2022-12-01T00:01:52.126Z,11.90
2022-12-01T00:04:21.614Z,12.73
2022-12-01T00:06:51.012Z,12.77
2022-12-01T00:09:39.737Z,13.77
2022-12-01T00:12:10.603Z,15.27
2022-12-01T00:14:37.262Z,14.17
2022-12-01T00:17:04.457Z,14.37
2022-12-01T00:19:30.487Z,15.10
2022-12-01T00:21:59.884Z,17.10
2022-12-01T00:24:26.001Z,17.30
2022-12-01T00:26:52.081Z,16.43
2022-12-01T00:29:20.097Z,17.40
2022-12-01T00:31:50.091Z,16.30
2022-12-01T00:34:24.678Z,16.17
2022-12-01T00:36:50.830Z,19.07
2022-12-01T00:39:16.900Z,18.60
2022-12-01T00:41:42.974Z,19.50
2022-12-01T00:44:09.142Z,19.83
2022-12-01T00:46:35.263Z,20.00
2022-12-01T00:49:01.287Z,20.77
2022-12-01T00:51:35.653Z,21.87
2022-12-01T00:54:05.172Z,22.00
2022-12-01T00:56:34.571Z,23.90
2022-12-01T00:59:04.176Z,22.10
2022-12-01T01:01:34.494Z,24.73
2022-12-01T01:04:03.237Z,23.70
2022-12-01T01:06:32.343Z,23.87
2022-12-01T01:09:05.266Z,24.90
2022-12-01T01:11:35.583Z,25.17
2022-12-01T01:14:05.492Z,25.37
2022-12-01T01:16:34.343Z,25.63
2022-12-01T01:19:06.065Z,26.57
2022-12-01T01:21:35.869Z,25.90
2022-12-01T01:24:05.676Z,26.20
2022-12-01T01:26:36.260Z,25.07
2022-12-01T01:29:08.042Z,26.53
2022-12-01T01:31:34.937Z,25.70
2022-12-01T01:34:04.890Z,27.50
2022-12-01T01:36:36.570Z,27.37
2022-12-01T01:39:06.613Z,25.13
2022-12-01T01:41:35.943Z,25.53
2022-12-01T01:44:43.222Z,24.77
2022-12-01T01:47:11.512Z,25.60
2022-12-01T01:49:37.768Z,26.40
2022-12-01T01:52:12.648Z,24.93
2022-12-01T01:54:47.385Z,26.87
2022-12-01T01:57:16.045Z,26.43
2022-12-01T01:59:45.582Z,26.50
2022-12-01T02:02:16.000Z,24.90
2022-12-01T02:04:54.978Z,24.13
2022-12-01T02:07:59.800Z,27.00
2022-12-01T02:11:06.759Z,25.10
2022-12-01T02:13:37.189Z,25.30
2022-12-01T02:16:19.460Z,24.70
2022-12-01T02:19:02.701Z,27.00
2022-12-01T02:21:40.789Z,26.23
2022-12-01T02:24:44.402Z,26.67
2022-12-01T02:27:38.561Z,26.60
2022-12-01T02:30:16.291Z,25.67
2022-12-01T02:32:46.390Z,27.47
2022-12-01T02:35:22.625Z,26.97
2022-12-01T02:38:31.289Z,25.90
2022-12-01T02:41:09.976Z,27.30
2022-12-01T02:43:45.764Z,27.57
2022-12-01T02:46:26.040Z,27.73
2022-12-01T02:48:53.552Z,28.63
2022-12-01T02:51:23.537Z,26.10
2022-12-01T02:53:55.486Z,28.57
2022-12-01T02:56:22.980Z,27.10
2022-12-01T02:58:49.310Z,28.90
2022-12-01T03:01:44.143Z,28.23
2022-12-01T03:04:16.233Z,28.10
2022-12-01T03:06:52.384Z,29.77
2022-12-01T03:09:45.425Z,28.50
2022-12-01T03:12:34.514Z,30.40
2022-12-01T03:15:14.196Z,28.57
2022-12-01T03:17:57.205Z,29.10
2022-12-01T03:20:34.505Z,28.50
2022-12-01T03:23:12.724Z,29.90
2022-12-01T03:25:48.497Z,28.80
2022-12-01T03:28:28.051Z,29.50
2022-12-01T03:31:02.100Z,30.03
2022-12-01T03:33:39.193Z,30.10
2022-12-01T03:36:14.357Z,30.57
2022-12-01T03:38:43.996Z,31.40
2022-12-01T03:41:17.849Z,32.03
2022-12-01T03:43:48.808Z,30.57
2022-12-01T03:46:20.830Z,31.50
2022-12-01T03:48:55.824Z,30.70
2022-12-01T03:51:48.876Z,29.23
2022-12-01T03:54:44.345Z,31.03
2022-12-01T03:57:18.211Z,32.30
2022-12-01T03:59:53.214Z,30.13
2022-12-01T04:02:26.966Z,30.90
2022-12-01T04:04:56.980Z,31.77
2022-12-01T04:07:26.792Z,32.57
2022-12-01T04:09:57.008Z,30.83
2022-12-01T04:12:30.193Z,32.33
2022-12-01T04:15:03.308Z,32.40
2022-12-01T04:17:33.753Z,33.50
2022-12-01T04:20:06.229Z,32.50
2022-12-01T04:22:37.416Z,32.70
2022-12-01T04:25:12.089Z,33.40
2022-12-01T04:27:42.723Z,33.43
2022-12-01T04:30:13.721Z,32.87
2022-12-01T04:32:44.684Z,32.80
2022-12-01T04:35:14.545Z,30.77
2022-12-01T04:37:44.882Z,32.30
2022-12-01T04:40:15.225Z,32.23
2022-12-01T04:42:50.122Z,31.20
2022-12-01T04:45:20.356Z,30.97
2022-12-01T04:47:52.317Z,30.80
2022-12-01T04:50:22.722Z,32.40
2022-12-01T04:52:53.412Z,29.93
2022-12-01T04:55:22.066Z,30.83
2022-12-01T04:57:51.782Z,30.30
2022-12-01T05:00:25.027Z,31.40
2022-12-01T05:02:54.061Z,30.50
2022-12-01T05:05:23.466Z,29.67
2022-12-01T05:07:52.862Z,30.60
2022-12-01T05:10:22.522Z,29.97
2022-12-01T05:12:52.720Z,29.73
2022-12-01T05:15:22.562Z,30.37
2022-12-01T05:17:54.272Z,29.17
2022-12-01T05:20:43.744Z,30.37
2022-12-01T05:23:15.269Z,30.10
2022-12-01T05:25:46.781Z,30.70
2022-12-01T05:28:13.594Z,29.20
2022-12-01T05:30:40.162Z,30.43
2022-12-01T05:33:06.283Z,29.50
2022-12-01T05:35:40.151Z,28.70
2022-12-01T05:38:08.241Z,29.53
2022-12-01T05:40:35.479Z,29.53
2022-12-01T05:43:01.611Z,29.57
2022-12-01T05:45:34.262Z,28.87
2022-12-01T05:48:01.314Z,29.03
2022-12-01T05:50:28.955Z,30.47
2022-12-01T05:52:55.216Z,27.80
2022-12-01T05:55:29.204Z,29.33
2022-12-01T05:57:58.905Z,28.93
2022-12-01T06:00:28.808Z,28.20
2022-12-01T06:02:59.268Z,27.53
2022-12-01T06:05:28.963Z,26.67
2022-12-01T06:07:58.456Z,27.60
2022-12-01T06:10:28.309Z,27.67
2022-12-01T06:13:02.524Z,27.60
2022-12-01T06:15:31.966Z,26.50
2022-12-01T06:18:01.427Z,27.27
2022-12-01T06:20:31.012Z,28.97
2022-12-01T06:23:01.030Z,26.97
2022-12-01T06:25:30.796Z,26.97
2022-12-01T06:28:00.500Z,25.73
2022-12-01T06:30:30.265Z,26.40
2022-12-01T06:33:00.197Z,27.80
2022-12-01T06:35:29.691Z,28.77
2022-12-01T06:37:59.192Z,25.63
2022-12-01T06:40:34.011Z,28.93
2022-12-01T06:43:04.360Z,27.33
2022-12-01T06:45:35.280Z,27.67
2022-12-01T06:48:04.304Z,27.23
2022-12-01T06:50:34.246Z,25.23
2022-12-01T06:53:04.134Z,25.90
2022-12-01T06:55:33.924Z,24.80
2022-12-01T06:58:07.135Z,24.70
2022-12-01T07:00:36.846Z,27.40
2022-12-01T07:03:06.010Z,26.53
2022-12-01T07:05:36.029Z,27.37
2022-12-01T07:08:07.507Z,26.27
2022-12-01T07:10:37.346Z,25.40
2022-12-01T07:13:06.966Z,24.83
2022-12-01T07:15:37.829Z,25.20
2022-12-01T07:18:06.519Z,25.97
2022-12-01T07:20:35.754Z,26.33
2022-12-01T07:23:05.120Z,24.40
2022-12-01T07:25:34.546Z,25.10
2022-12-01T07:28:04.075Z,26.53
2022-12-01T07:30:33.184Z,28.40
2022-12-01T07:33:02.808Z,25.57
2022-12-01T07:35:35.739Z,25.13
2022-12-01T07:38:05.066Z,23.97
2022-12-01T07:40:34.718Z,24.70
2022-12-01T07:43:04.422Z,24.63
2022-12-01T07:45:34.831Z,24.67
2022-12-01T07:48:04.881Z,25.70
2022-12-01T07:50:33.925Z,24.77
2022-12-01T07:53:03.336Z,26.30
2022-12-01T07:55:32.984Z,25.80
2022-12-01T07:58:02.777Z,25.00
2022-12-01T08:00:31.589Z,23.80
2022-12-01T08:03:04.968Z,23.27
2022-12-01T08:05:34.997Z,23.87
2022-12-01T08:08:03.848Z,23.90
2022-12-01T08:10:33.219Z,23.27
2022-12-01T08:13:03.041Z,23.53
2022-12-01T08:15:32.358Z,21.90
2022-12-01T08:18:02.742Z,23.27
2022-12-01T08:20:32.683Z,23.43
2022-12-01T08:23:02.752Z,24.30
2022-12-01T08:25:44.870Z,24.37
2022-12-01T08:28:15.482Z,23.83
2022-12-01T08:30:45.923Z,24.07
2022-12-01T08:33:14.379Z,23.17
2022-12-01T08:35:43.873Z,24.07
2022-12-01T08:38:19.537Z,23.63
2022-12-01T08:40:49.358Z,24.93
2022-12-01T08:43:49.707Z,22.47
2022-12-01T08:46:11.518Z,21.60
2022-12-01T08:48:38.262Z,24.23
2022-12-01T08:51:05.239Z,22.20
2022-12-01T08:53:32.037Z,22.93
2022-12-01T08:56:08.713Z,23.37
2022-12-01T08:58:34.789Z,22.20
2022-12-01T09:01:07.506Z,23.53
2022-12-01T09:03:41.413Z,22.20
2022-12-01T09:06:21.894Z,23.37
2022-12-01T09:08:48.511Z,21.57
2022-12-01T09:11:22.952Z,21.33
2022-12-01T09:13:54.928Z,21.50
2022-12-01T09:16:21.388Z,21.33
2022-12-01T09:18:47.971Z,20.70
2022-12-01T09:21:20.735Z,22.37
2022-12-01T09:23:49.518Z,20.33
2022-12-01T09:26:18.247Z,20.63
2022-12-01T09:28:49.245Z,19.30
2022-12-01T09:31:22.966Z,20.40
2022-12-01T09:33:55.012Z,18.50
2022-12-01T09:36:21.094Z,19.00
2022-12-01T09:38:53.026Z,18.43
2022-12-01T09:41:36.937Z,19.40
2022-12-01T09:44:20.009Z,17.40
2022-12-01T09:46:56.493Z,17.77
2022-12-01T09:49:49.720Z,17.17
2022-12-01T09:52:21.458Z,18.00
2022-12-01T09:54:54.478Z,17.50
2022-12-01T09:57:34.114Z,17.33
2022-12-01T10:00:27.191Z,16.47
2022-12-01T10:03:24.121Z,16.00
2022-12-01T10:08:59.029Z,16.70
2022-12-01T10:11:33.093Z,15.67
2022-12-01T10:14:05.144Z,13.90
2022-12-01T10:16:48.622Z,15.63
2022-12-01T10:19:36.564Z,14.30
2022-12-01T10:22:15.973Z,15.00
2022-12-01T10:24:55.610Z,14.97
2022-12-01T10:27:41.757Z,13.90
2022-12-01T10:30:16.185Z,11.03
2022-12-01T10:33:02.028Z,13.20
2022-12-01T10:35:36.354Z,12.70
2022-12-01T10:38:21.625Z,12.13
2022-12-01T10:40:50.092Z,12.70
2022-12-01T10:43:29.147Z,11.37
2022-12-01T10:46:00.930Z,12.00
2022-12-01T10:48:27.133Z,12.13
2022-12-01T10:50:56.184Z,11.57
2022-12-01T10:53:33.225Z,11.63
2022-12-01T10:56:31.895Z,11.53
2022-12-01T10:59:02.103Z,11.93
2022-12-01T11:01:36.222Z,12.30
2022-12-01T11:04:25.384Z,13.60
2022-12-01T11:06:56.362Z,12.20
2022-12-01T11:09:29.032Z,11.93
2022-12-01T11:12:01.812Z,12.50
2022-12-01T11:14:46.728Z,12.33
2022-12-01T11:17:39.763Z,13.30
2022-12-01T11:20:26.970Z,14.40
2022-12-01T11:23:17.786Z,13.93
2022-12-01T11:26:17.096Z,13.27
2022-12-01T11:29:04.775Z,13.40
2022-12-01T11:31:48.109Z,13.30
2022-12-01T11:34:37.593Z,12.80
2022-12-01T11:37:09.118Z,13.97
2022-12-01T11:39:41.005Z,14.77
2022-12-01T11:42:22.922Z,13.50
2022-12-01T11:45:07.440Z,12.73
2022-12-01T11:47:57.409Z,14.27
2022-12-01T11:50:31.648Z,15.20
2022-12-01T11:53:30.543Z,15.50
2022-12-01T11:56:22.716Z,14.17
2022-12-01T11:59:08.909Z,13.83
2022-12-01T12:01:40.192Z,14.43
2022-12-01T12:04:44.851Z,14.83
2022-12-01T12:07:46.944Z,13.80
2022-12-01T12:10:45.807Z,14.10
2022-12-01T12:13:44.371Z,14.90
2022-12-01T12:16:42.765Z,14.00
2022-12-01T12:19:34.315Z,14.10
2022-12-01T12:22:44.487Z,15.10
2022-12-01T12:25:27.150Z,16.10
2022-12-01T12:28:24.814Z,15.83
2022-12-01T12:31:26.294Z,15.63
2022-12-01T12:34:22.043Z,15.97
2022-12-01T12:37:10.958Z,17.13
2022-12-01T12:39:47.808Z,18.40
2022-12-01T12:42:32.483Z,17.10
2022-12-01T12:45:34.169Z,15.50
2022-12-01T12:48:24.686Z,14.90
2022-12-01T12:51:13.554Z,16.00
2022-12-01T12:54:16.069Z,16.00
2022-12-01T12:56:58.555Z,16.20
2022-12-01T12:59:44.365Z,14.33
2022-12-01T13:02:37.029Z,14.53
2022-12-01T13:05:21.014Z,15.37
2022-12-01T13:08:11.336Z,14.70
2022-12-01T13:10:44.162Z,13.87
2022-12-01T13:13:47.417Z,15.00
2022-12-01T13:16:21.846Z,14.90
2022-12-01T13:19:25.767Z,15.10
2022-12-01T13:21:56.872Z,15.10
2022-12-01T13:24:30.560Z,15.30
2022-12-01T13:27:13.796Z,16.13
2022-12-01T13:29:49.755Z,15.10
2022-12-01T13:32:36.489Z,17.40
2022-12-01T13:35:33.806Z,16.67
2022-12-01T13:38:21.459Z,16.40
2022-12-01T13:40:48.132Z,15.87
2022-12-01T13:43:20.375Z,16.97
2022-12-01T13:45:50.953Z,16.43
2022-12-01T13:48:51.293Z,15.40
2022-12-01T13:51:23.667Z,16.10
2022-12-01T13:54:04.521Z,17.30
2022-12-01T13:57:02.771Z,15.97
2022-12-01T14:00:19.617Z,17.03
2022-12-01T14:03:16.039Z,15.70
2022-12-01T14:05:51.501Z,18.07
2022-12-01T14:08:26.031Z,18.40
2022-12-01T14:11:17.744Z,19.40
2022-12-01T14:13:55.860Z,17.00
2022-12-01T14:16:45.897Z,18.20
2022-12-01T14:19:33.109Z,18.67
2022-12-01T14:22:07.111Z,17.90
2022-12-01T14:24:41.071Z,20.00
2022-12-01T14:27:11.431Z,18.33
2022-12-01T14:29:42.487Z,18.57
2022-12-01T14:32:15.809Z,17.50
2022-12-01T14:34:52.365Z,18.73
2022-12-01T14:37:32.878Z,18.27
2022-12-01T14:40:13.449Z,18.23
2022-12-01T14:43:00.937Z,17.77
2022-12-01T14:45:32.437Z,18.37
2022-12-01T14:48:09.656Z,18.60
2022-12-01T14:50:49.700Z,18.13
2022-12-01T14:53:22.087Z,17.30
2022-12-01T14:55:55.863Z,17.70
2022-12-01T14:58:28.792Z,18.70
2022-12-01T15:01:00.873Z,18.07
2022-12-01T15:03:43.021Z,19.03
2022-12-01T15:06:27.796Z,19.10
2022-12-01T15:09:33.419Z,17.80
2022-12-01T15:12:08.384Z,19.00
2022-12-01T15:14:47.225Z,18.40
2022-12-01T15:17:32.031Z,18.37
2022-12-01T15:20:00.854Z,20.50
2022-12-01T15:22:32.864Z,19.20
2022-12-01T15:25:14.200Z,17.97
2022-12-01T15:27:44.976Z,19.03
2022-12-01T15:30:15.169Z,18.70
2022-12-01T15:32:44.894Z,18.90
2022-12-01T15:35:21.402Z,18.90
2022-12-01T15:37:50.036Z,18.93
2022-12-01T15:41:06.042Z,19.10
2022-12-01T15:43:37.402Z,18.40
2022-12-01T15:46:14.274Z,18.83
2022-12-01T15:48:44.957Z,19.23
2022-12-01T15:51:26.288Z,18.97
2022-12-01T15:54:02.409Z,18.40
2022-12-01T15:56:40.194Z,19.70
2022-12-01T15:59:13.405Z,20.33
2022-12-01T16:01:47.839Z,18.10
2022-12-01T16:04:25.524Z,18.00
2022-12-01T16:06:58.962Z,18.77
2022-12-01T16:09:36.335Z,19.70
2022-12-01T16:12:15.893Z,19.73
2022-12-01T16:15:02.565Z,18.27
2022-12-01T16:17:46.203Z,20.60
2022-12-01T16:20:25.538Z,18.40
2022-12-01T16:23:11.238Z,19.80
2022-12-01T16:25:42.909Z,18.97
2022-12-01T16:28:19.184Z,18.30
2022-12-01T16:30:51.132Z,17.93
2022-12-01T16:33:19.972Z,19.37
2022-12-01T16:35:54.236Z,19.40
2022-12-01T16:38:25.868Z,17.80
2022-12-01T16:40:58.697Z,18.17
2022-12-01T16:43:33.543Z,18.10
2022-12-01T16:46:08.705Z,19.47
2022-12-01T16:48:39.305Z,17.23
2022-12-01T16:51:14.577Z,18.90
2022-12-01T16:53:50.957Z,19.80
2022-12-01T16:56:21.460Z,20.97
2022-12-01T16:58:57.626Z,18.67
2022-12-01T17:01:28.611Z,17.17
2022-12-01T17:04:01.382Z,19.07
2022-12-01T17:06:39.724Z,19.23
2022-12-01T17:09:10.368Z,20.50
2022-12-01T17:11:41.640Z,17.20
2022-12-01T17:14:16.274Z,20.00
2022-12-01T17:16:47.066Z,19.60
2022-12-01T17:19:17.757Z,19.43
2022-12-01T17:21:48.171Z,19.43
2022-12-01T17:24:19.421Z,19.70
2022-12-01T17:26:50.125Z,21.57
2022-12-01T17:29:20.892Z,19.40
2022-12-01T17:31:55.759Z,18.27
2022-12-01T17:34:26.006Z,19.20
2022-12-01T17:36:57.057Z,19.93
2022-12-01T17:39:27.511Z,19.67
2022-12-01T17:41:58.024Z,20.03
2022-12-01T17:44:29.120Z,20.03
2022-12-01T17:46:59.819Z,20.40
2022-12-01T17:49:36.474Z,20.27
2022-12-01T17:52:07.424Z,20.47
2022-12-01T17:54:36.431Z,21.20
2022-12-01T17:57:07.085Z,21.30
2022-12-01T17:59:37.542Z,19.97
2022-12-01T18:02:10.892Z,20.60
2022-12-01T18:04:37.284Z,19.40
2022-12-01T18:07:09.579Z,22.07
2022-12-01T18:09:39.248Z,20.67
2022-12-01T18:12:08.875Z,23.70
2022-12-01T18:14:40.009Z,22.63
2022-12-01T18:17:08.619Z,23.03
2022-12-01T18:19:38.414Z,22.43
2022-12-01T18:22:08.373Z,23.87
2022-12-01T18:24:44.062Z,21.60
2022-12-01T18:27:14.320Z,22.63
2022-12-01T18:29:43.273Z,24.80
2022-12-01T18:32:14.205Z,23.90
2022-12-01T18:34:43.023Z,22.80
2022-12-01T18:37:12.937Z,23.00
2022-12-01T18:39:42.607Z,22.50
2022-12-01T18:42:17.847Z,23.90
2022-12-01T18:44:48.038Z,23.57
2022-12-01T18:47:17.185Z,24.00
2022-12-01T18:49:46.356Z,23.50
2022-12-01T18:52:16.401Z,22.43
2022-12-01T18:54:46.151Z,24.00
2022-12-01T18:57:17.089Z,23.77
2022-12-01T18:59:50.045Z,23.60
2022-12-01T19:02:19.256Z,23.20
2022-12-01T19:04:49.365Z,24.23
2022-12-01T19:07:18.342Z,22.90
2022-12-01T19:09:50.563Z,23.57
2022-12-01T19:12:19.923Z,23.00
2022-12-01T19:14:52.463Z,21.93
2022-12-01T19:17:19.865Z,22.67
2022-12-01T19:19:50.218Z,22.77
2022-12-01T19:22:20.417Z,22.70
2022-12-01T19:24:50.828Z,24.00
2022-12-01T19:27:24.584Z,25.00
2022-12-01T19:29:54.341Z,22.33
2022-12-01T19:32:24.060Z,22.40
2022-12-01T19:34:53.573Z,21.80
2022-12-01T19:37:23.739Z,21.90
2022-12-01T19:39:53.293Z,21.90
2022-12-01T19:42:23.525Z,21.77
2022-12-01T19:44:53.743Z,24.13
2022-12-01T19:47:24.328Z,22.63
2022-12-01T19:49:54.192Z,23.27
2022-12-01T19:52:24.234Z,22.20
2022-12-01T19:54:57.436Z,22.27
2022-12-01T19:57:27.547Z,22.80
2022-12-01T19:59:57.125Z,21.43
2022-12-01T20:02:29.267Z,21.70
2022-12-01T20:04:56.764Z,20.33
2022-12-01T20:07:27.418Z,21.33
2022-12-01T20:09:57.093Z,22.63
2022-12-01T20:12:27.165Z,22.57
2022-12-01T20:14:56.407Z,20.83
2022-12-01T20:17:27.086Z,20.20
2022-12-01T20:19:55.996Z,19.60
2022-12-01T20:22:33.204Z,21.10
2022-12-01T20:24:59.512Z,20.80
2022-12-01T20:27:30.102Z,20.90
2022-12-01T20:30:00.497Z,19.70
2022-12-01T20:32:30.856Z,19.67
2022-12-01T20:35:01.229Z,19.13
2022-12-01T20:37:31.467Z,18.80
2022-12-01T20:40:03.392Z,20.00
2022-12-01T20:42:32.786Z,19.70
2022-12-01T20:45:02.732Z,18.20
2022-12-01T20:47:35.894Z,19.57
2022-12-01T20:50:07.787Z,18.20
2022-12-01T20:52:39.983Z,18.90
2022-12-01T20:55:06.770Z,20.70
2022-12-01T20:57:36.015Z,19.40
2022-12-01T21:00:06.585Z,21.00
2022-12-01T21:02:36.224Z,20.60
2022-12-01T21:05:05.497Z,18.90
2022-12-01T21:07:37.567Z,20.10
2022-12-01T21:10:08.085Z,20.70
2022-12-01T21:12:57.852Z,20.60
2022-12-01T21:15:30.543Z,19.43
2022-12-01T21:18:10.316Z,18.00
2022-12-01T21:20:39.947Z,20.37
2022-12-01T21:23:20.673Z,19.20
2022-12-01T21:25:51.061Z,19.60
2022-12-01T21:28:18.524Z,18.80
2022-12-01T21:31:01.717Z,19.40
2022-12-01T21:33:36.464Z,20.23
2022-12-01T21:36:20.037Z,19.87
2022-12-01T21:38:53.996Z,18.47
2022-12-01T21:41:26.659Z,19.13
2022-12-01T21:44:12.692Z,20.17
2022-12-01T21:46:43.512Z,19.80
2022-12-01T21:49:17.998Z,19.47
2022-12-01T21:51:50.884Z,19.53
2022-12-01T21:54:22.122Z,19.20
2022-12-01T21:56:56.684Z,20.80
2022-12-01T21:59:30.737Z,20.97
2022-12-01T22:02:02.119Z,21.20
2022-12-01T22:04:32.960Z,19.33
2022-12-01T22:07:13.639Z,19.57
2022-12-01T22:09:44.528Z,20.07
2022-12-01T22:12:25.138Z,20.40
2022-12-01T22:14:59.640Z,20.23
2022-12-01T22:17:27.165Z,19.63
2022-12-01T22:19:59.982Z,19.33
2022-12-01T22:22:29.961Z,20.77
2022-12-01T22:25:31.788Z,20.40
2022-12-01T22:28:19.477Z,19.80
2022-12-01T22:30:49.965Z,20.10
2022-12-01T22:33:20.908Z,19.53
2022-12-01T22:35:52.223Z,19.57
2022-12-01T22:38:35.776Z,19.10
2022-12-01T22:41:14.019Z,20.90
2022-12-01T22:43:45.682Z,20.17
2022-12-01T22:46:37.465Z,20.50
2022-12-01T22:49:19.487Z,19.60
2022-12-01T22:51:58.481Z,19.67
2022-12-01T22:54:38.381Z,20.60
2022-12-01T22:57:09.520Z,19.90
2022-12-01T22:59:43.778Z,19.80
2022-12-01T23:02:22.355Z,20.17
2022-12-01T23:04:55.612Z,17.40
2022-12-01T23:07:35.385Z,19.93
2022-12-01T23:10:24.579Z,19.57
2022-12-01T23:12:52.763Z,19.10
2022-12-01T23:15:33.790Z,19.83
2022-12-01T23:18:11.679Z,19.57
2022-12-01T23:20:40.253Z,18.47
2022-12-01T23:23:16.543Z,19.60
2022-12-01T23:25:48.875Z,18.83
2022-12-01T23:28:19.947Z,17.47
2022-12-01T23:30:52.811Z,18.50
2022-12-01T23:33:26.037Z,18.60
2022-12-01T23:36:03.756Z,18.67
2022-12-01T23:38:40.508Z,17.90
2022-12-01T23:41:25.284Z,18.40
2022-12-01T23:44:15.432Z,19.77
2022-12-01T23:46:50.459Z,17.30
2022-12-01T23:49:29.585Z,17.57
2022-12-01T23:52:01.757Z,17.53
2022-12-01T23:54:33.934Z,17.23
2022-12-01T23:57:15.622Z,17.70
2022-12-01T23:59:41.909Z,17.47
